sensor_id;sensor_type;location;lat;lon;timestamp;pressure;altitude;pressure_sealevel;temperature;humidity
50710;BME280;37033;49.994;21.992;2022-10-29T00:02:28;100129.39;;;8.88;88.65
50710;BME280;37033;49.994;21.992;2022-10-29T00:05:19;100129.05;;;8.86;88.64
50710;BME280;37033;49.994;21.992;2022-10-29T00:08:09;100122.89;;;8.84;88.54
50710;BME280;37033;49.994;21.992;2022-10-29T00:11:07;100119.81;;;8.81;88.64
50710;BME280;37033;49.994;21.992;2022-10-29T00:13:59;100110.27;;;8.80;88.76
50710;BME280;37033;49.994;21.992;2022-10-29T00:16:49;100107.48;;;8.82;89.08
50710;BME280;37033;49.994;21.992;2022-10-29T00:19:41;100100.90;;;8.86;89.33
50710;BME280;37033;49.994;21.992;2022-10-29T00:22:31;100097.10;;;8.91;89.45
50710;BME280;37033;49.994;21.992;2022-10-29T00:25:22;100092.61;;;8.96;89.53
50710;BME280;37033;49.994;21.992;2022-10-29T00:28:12;100087.63;;;9.04;89.73
50710;BME280;37033;49.994;21.992;2022-10-29T00:31:04;100089.21;;;9.14;89.90
50710;BME280;37033;49.994;21.992;2022-10-29T00:33:55;100087.48;;;9.23;89.92
50710;BME280;37033;49.994;21.992;2022-10-29T00:36:46;100083.91;;;9.29;89.85
50710;BME280;37033;49.994;21.992;2022-10-29T00:39:36;100081.09;;;9.32;89.66
50710;BME280;37033;49.994;21.992;2022-10-29T00:42:26;100078.80;;;9.37;89.70
50710;BME280;37033;49.994;21.992;2022-10-29T00:45:21;100072.94;;;9.41;89.81
50710;BME280;37033;49.994;21.992;2022-10-29T00:48:11;100071.21;;;9.44;89.67
50710;BME280;37033;49.994;21.992;2022-10-29T00:51:04;100068.02;;;9.45;89.54
50710;BME280;37033;49.994;21.992;2022-10-29T00:53:58;100059.92;;;9.46;89.55
50710;BME280;37033;49.994;21.992;2022-10-29T00:56:53;100059.57;;;9.49;89.53
50710;BME280;37033;49.994;21.992;2022-10-29T00:59:45;100063.83;;;9.51;89.47
50710;BME280;37033;49.994;21.992;2022-10-29T01:02:36;100065.95;;;9.52;89.58
50710;BME280;37033;49.994;21.992;2022-10-29T01:05:28;100060.70;;;9.57;89.72
50710;BME280;37033;49.994;21.992;2022-10-29T01:08:19;100057.86;;;9.63;89.85
50710;BME280;37033;49.994;21.992;2022-10-29T01:11:18;100053.21;;;9.71;89.89
50710;BME280;37033;49.994;21.992;2022-10-29T01:14:17;100053.27;;;9.77;89.72
50710;BME280;37033;49.994;21.992;2022-10-29T01:17:18;100048.26;;;9.81;89.70
50710;BME280;37033;49.994;21.992;2022-10-29T01:20:34;100043.58;;;9.85;89.56
50710;BME280;37033;49.994;21.992;2022-10-29T01:23:46;100041.05;;;9.88;89.70
50710;BME280;37033;49.994;21.992;2022-10-29T01:30:12;100040.02;;;9.93;89.48
50710;BME280;37033;49.994;21.992;2022-10-29T01:33:09;100040.07;;;9.93;89.40
50710;BME280;37033;49.994;21.992;2022-10-29T01:36:06;100040.27;;;9.93;89.42
50710;BME280;37033;49.994;21.992;2022-10-29T01:39:06;100029.45;;;9.93;89.31
50710;BME280;37033;49.994;21.992;2022-10-29T01:42:03;100029.81;;;9.94;89.43
50710;BME280;37033;49.994;21.992;2022-10-29T01:44:59;100028.02;;;9.95;89.36
50710;BME280;37033;49.994;21.992;2022-10-29T01:47:58;100024.30;;;9.94;89.40
50710;BME280;37033;49.994;21.992;2022-10-29T01:50:52;100033.90;;;9.96;89.42
50710;BME280;37033;49.994;21.992;2022-10-29T01:53:44;100039.27;;;9.97;89.41
50710;BME280;37033;49.994;21.992;2022-10-29T01:56:34;100043.91;;;9.98;89.34
50710;BME280;37033;49.994;21.992;2022-10-29T01:59:27;100049.21;;;9.97;89.19
50710;BME280;37033;49.994;21.992;2022-10-29T02:02:24;100043.88;;;9.97;89.28
50710;BME280;37033;49.994;21.992;2022-10-29T02:05:25;100035.81;;;9.96;89.31
50710;BME280;37033;49.994;21.992;2022-10-29T02:08:23;100024.07;;;9.96;89.32
50710;BME280;37033;49.994;21.992;2022-10-29T02:11:22;100016.39;;;9.96;89.43
50710;BME280;37033;49.994;21.992;2022-10-29T02:14:19;100007.86;;;9.97;89.57
50710;BME280;37033;49.994;21.992;2022-10-29T02:17:12;100008.64;;;9.99;89.56
50710;BME280;37033;49.994;21.992;2022-10-29T02:20:05;100010.55;;;9.99;89.53
50710;BME280;37033;49.994;21.992;2022-10-29T02:22:57;100001.34;;;10.01;89.59
50710;BME280;37033;49.994;21.992;2022-10-29T02:25:47;99992.95;;;10.04;89.55
50710;BME280;37033;49.994;21.992;2022-10-29T02:28:37;99996.23;;;10.07;89.43
50710;BME280;37033;49.994;21.992;2022-10-29T02:31:27;99992.59;;;10.08;89.43
50710;BME280;37033;49.994;21.992;2022-10-29T02:34:18;99987.26;;;10.10;89.41
50710;BME280;37033;49.994;21.992;2022-10-29T02:37:08;99992.77;;;10.11;89.27
50710;BME280;37033;49.994;21.992;2022-10-29T02:39:58;99991.89;;;10.11;89.19
50710;BME280;37033;49.994;21.992;2022-10-29T02:42:48;99992.83;;;10.13;89.28
50710;BME280;37033;49.994;21.992;2022-10-29T02:45:38;99993.55;;;10.14;89.21
50710;BME280;37033;49.994;21.992;2022-10-29T02:48:29;99992.87;;;10.18;89.29
50710;BME280;37033;49.994;21.992;2022-10-29T02:51:19;99989.33;;;10.21;89.13
50710;BME280;37033;49.994;21.992;2022-10-29T02:54:09;99990.13;;;10.24;89.26
50710;BME280;37033;49.994;21.992;2022-10-29T02:56:59;99986.61;;;10.28;89.16
50710;BME280;37033;49.994;21.992;2022-10-29T02:59:50;99974.25;;;10.31;89.06
50710;BME280;37033;49.994;21.992;2022-10-29T03:02:40;99968.12;;;10.34;89.10
50710;BME280;37033;49.994;21.992;2022-10-29T03:05:30;99969.81;;;10.36;88.99
50710;BME280;37033;49.994;21.992;2022-10-29T03:08:21;99975.11;;;10.36;88.90
50710;BME280;37033;49.994;21.992;2022-10-29T03:11:11;99972.13;;;10.37;88.86
50710;BME280;37033;49.994;21.992;2022-10-29T03:14:02;99975.57;;;10.37;88.85
50710;BME280;37033;49.994;21.992;2022-10-29T03:16:51;99974.97;;;10.37;88.78
50710;BME280;37033;49.994;21.992;2022-10-29T03:19:42;99973.58;;;10.39;88.85
50710;BME280;37033;49.994;21.992;2022-10-29T03:22:32;99974.39;;;10.41;88.75
50710;BME280;37033;49.994;21.992;2022-10-29T03:25:22;99972.91;;;10.43;88.70
50710;BME280;37033;49.994;21.992;2022-10-29T03:28:13;99968.39;;;10.42;88.60
50710;BME280;37033;49.994;21.992;2022-10-29T03:31:04;99964.55;;;10.43;88.53
50710;BME280;37033;49.994;21.992;2022-10-29T03:33:54;99959.89;;;10.44;88.65
50710;BME280;37033;49.994;21.992;2022-10-29T03:36:45;99953.10;;;10.45;88.61
50710;BME280;37033;49.994;21.992;2022-10-29T03:39:35;99951.60;;;10.48;88.54
50710;BME280;37033;49.994;21.992;2022-10-29T03:42:26;99953.17;;;10.50;88.52
50710;BME280;37033;49.994;21.992;2022-10-29T03:45:19;99953.21;;;10.54;88.51
50710;BME280;37033;49.994;21.992;2022-10-29T03:48:09;99950.41;;;10.54;88.36
50710;BME280;37033;49.994;21.992;2022-10-29T03:51:00;99955.35;;;10.54;88.18
50710;BME280;37033;49.994;21.992;2022-10-29T03:53:53;99952.67;;;10.54;88.17
50710;BME280;37033;49.994;21.992;2022-10-29T03:56:43;99950.02;;;10.53;88.22
50710;BME280;37033;49.994;21.992;2022-10-29T03:59:33;99947.70;;;10.53;88.17
50710;BME280;37033;49.994;21.992;2022-10-29T04:02:23;99940.92;;;10.53;88.22
50710;BME280;37033;49.994;21.992;2022-10-29T04:05:14;99942.06;;;10.53;88.11
50710;BME280;37033;49.994;21.992;2022-10-29T04:08:05;99946.62;;;10.53;88.04
50710;BME280;37033;49.994;21.992;2022-10-29T04:10:56;99944.92;;;10.52;87.99
50710;BME280;37033;49.994;21.992;2022-10-29T04:13:46;99946.80;;;10.52;88.04
50710;BME280;37033;49.994;21.992;2022-10-29T04:16:36;99948.04;;;10.51;88.04
50710;BME280;37033;49.994;21.992;2022-10-29T04:19:26;99948.75;;;10.51;88.05
50710;BME280;37033;49.994;21.992;2022-10-29T04:22:17;99952.38;;;10.51;88.02
50710;BME280;37033;49.994;21.992;2022-10-29T04:25:09;99953.63;;;10.51;88.01
50710;BME280;37033;49.994;21.992;2022-10-29T04:27:59;99950.46;;;10.50;87.94
50710;BME280;37033;49.994;21.992;2022-10-29T04:30:49;99951.69;;;10.49;87.81
50710;BME280;37033;49.994;21.992;2022-10-29T04:33:39;99946.13;;;10.47;87.72
50710;BME280;37033;49.994;21.992;2022-10-29T04:36:29;99948.08;;;10.46;87.61
50710;BME280;37033;49.994;21.992;2022-10-29T04:39:19;99944.70;;;10.43;87.61
50710;BME280;37033;49.994;21.992;2022-10-29T04:42:09;99942.21;;;10.41;87.60
50710;BME280;37033;49.994;21.992;2022-10-29T04:45:00;99944.73;;;10.38;87.67
50710;BME280;37033;49.994;21.992;2022-10-29T04:47:59;99932.04;;;10.37;87.72
50710;BME280;37033;49.994;21.992;2022-10-29T04:50:49;99931.72;;;10.36;87.97
50710;BME280;37033;49.994;21.992;2022-10-29T04:53:41;99926.88;;;10.35;88.04
50710;BME280;37033;49.994;21.992;2022-10-29T04:56:32;99928.31;;;10.34;87.94
50710;BME280;37033;49.994;21.992;2022-10-29T04:59:22;99926.08;;;10.32;87.89
50710;BME280;37033;49.994;21.992;2022-10-29T05:02:12;99927.58;;;10.32;88.02
50710;BME280;37033;49.994;21.992;2022-10-29T05:05:03;99927.94;;;10.31;88.02
50710;BME280;37033;49.994;21.992;2022-10-29T05:07:58;99926.01;;;10.30;87.83
50710;BME280;37033;49.994;21.992;2022-10-29T05:10:47;99924.18;;;10.29;87.91
50710;BME280;37033;49.994;21.992;2022-10-29T05:13:37;99922.73;;;10.29;87.96
50710;BME280;37033;49.994;21.992;2022-10-29T05:16:28;99915.98;;;10.28;87.92
50710;BME280;37033;49.994;21.992;2022-10-29T05:19:18;99924.90;;;10.29;87.93
50710;BME280;37033;49.994;21.992;2022-10-29T05:22:08;99926.91;;;10.29;87.93
50710;BME280;37033;49.994;21.992;2022-10-29T05:24:58;99925.63;;;10.29;87.89
50710;BME280;37033;49.994;21.992;2022-10-29T05:27:49;99927.76;;;10.31;87.92
50710;BME280;37033;49.994;21.992;2022-10-29T05:30:39;99926.15;;;10.33;87.88
50710;BME280;37033;49.994;21.992;2022-10-29T05:33:29;99922.82;;;10.38;87.82
50710;BME280;37033;49.994;21.992;2022-10-29T05:36:23;99921.40;;;10.43;87.71
50710;BME280;37033;49.994;21.992;2022-10-29T05:39:13;99926.02;;;10.47;87.60
50710;BME280;37033;49.994;21.992;2022-10-29T05:42:04;99921.80;;;10.52;87.39
50710;BME280;37033;49.994;21.992;2022-10-29T05:44:55;99931.56;;;10.57;87.30
50710;BME280;37033;49.994;21.992;2022-10-29T05:47:45;99931.02;;;10.60;87.09
50710;BME280;37033;49.994;21.992;2022-10-29T05:50:35;99928.35;;;10.65;86.90
50710;BME280;37033;49.994;21.992;2022-10-29T05:53:26;99930.35;;;10.68;86.82
50710;BME280;37033;49.994;21.992;2022-10-29T05:56:16;99926.31;;;10.71;86.75
50710;BME280;37033;49.994;21.992;2022-10-29T05:59:06;99928.28;;;10.74;86.60
50710;BME280;37033;49.994;21.992;2022-10-29T06:01:56;99931.48;;;10.76;86.45
50710;BME280;37033;49.994;21.992;2022-10-29T06:04:46;99933.48;;;10.80;86.29
50710;BME280;37033;49.994;21.992;2022-10-29T06:07:36;99928.21;;;10.82;86.23
50710;BME280;37033;49.994;21.992;2022-10-29T06:10:28;99932.64;;;10.85;86.03
50710;BME280;37033;49.994;21.992;2022-10-29T06:13:20;99929.40;;;10.89;85.94
50710;BME280;37033;49.994;21.992;2022-10-29T06:16:10;99936.38;;;10.93;85.77
50710;BME280;37033;49.994;21.992;2022-10-29T06:19:01;99939.73;;;10.94;85.67
50710;BME280;37033;49.994;21.992;2022-10-29T06:21:51;99937.89;;;10.97;85.73
50710;BME280;37033;49.994;21.992;2022-10-29T06:24:41;99938.53;;;11.00;85.61
50710;BME280;37033;49.994;21.992;2022-10-29T06:27:32;99936.26;;;11.03;85.47
50710;BME280;37033;49.994;21.992;2022-10-29T06:30:22;99935.42;;;11.06;85.33
50710;BME280;37033;49.994;21.992;2022-10-29T06:33:12;99935.95;;;11.10;85.35
50710;BME280;37033;49.994;21.992;2022-10-29T06:36:02;99938.50;;;11.13;85.10
50710;BME280;37033;49.994;21.992;2022-10-29T06:38:52;99930.98;;;11.19;85.12
50710;BME280;37033;49.994;21.992;2022-10-29T06:41:43;99925.61;;;11.24;84.89
50710;BME280;37033;49.994;21.992;2022-10-29T06:44:33;99918.92;;;11.31;84.52
50710;BME280;37033;49.994;21.992;2022-10-29T06:47:24;99924.11;;;11.40;84.46
50710;BME280;37033;49.994;21.992;2022-10-29T06:50:14;99919.19;;;11.48;84.25
50710;BME280;37033;49.994;21.992;2022-10-29T06:53:05;99917.91;;;11.56;83.87
50710;BME280;37033;49.994;21.992;2022-10-29T06:55:57;99917.75;;;11.63;83.70
50710;BME280;37033;49.994;21.992;2022-10-29T06:58:48;99922.61;;;11.70;83.42
50710;BME280;37033;49.994;21.992;2022-10-29T07:01:38;99921.20;;;11.77;83.41
50710;BME280;37033;49.994;21.992;2022-10-29T07:04:28;99919.83;;;11.83;83.35
50710;BME280;37033;49.994;21.992;2022-10-29T07:07:18;99926.60;;;11.91;83.22
50710;BME280;37033;49.994;21.992;2022-10-29T07:10:10;99926.66;;;11.95;83.04
50710;BME280;37033;49.994;21.992;2022-10-29T07:13:01;99934.90;;;12.00;82.88
50710;BME280;37033;49.994;21.992;2022-10-29T07:15:51;99933.60;;;12.05;82.66
50710;BME280;37033;49.994;21.992;2022-10-29T07:18:41;99936.85;;;12.10;82.57
50710;BME280;37033;49.994;21.992;2022-10-29T07:21:31;99935.00;;;12.14;82.35
50710;BME280;37033;49.994;21.992;2022-10-29T07:24:21;99936.92;;;12.18;81.95
50710;BME280;37033;49.994;21.992;2022-10-29T07:27:11;99933.25;;;12.21;82.07
50710;BME280;37033;49.994;21.992;2022-10-29T07:30:02;99933.34;;;12.26;81.71
50710;BME280;37033;49.994;21.992;2022-10-29T07:32:52;99929.54;;;12.29;81.62
50710;BME280;37033;49.994;21.992;2022-10-29T07:35:43;99924.94;;;12.33;81.58
50710;BME280;37033;49.994;21.992;2022-10-29T07:38:34;99918.73;;;12.37;81.48
50710;BME280;37033;49.994;21.992;2022-10-29T07:41:24;99909.87;;;12.40;81.26
50710;BME280;37033;49.994;21.992;2022-10-29T07:44:14;99908.61;;;12.42;81.57
50710;BME280;37033;49.994;21.992;2022-10-29T07:47:04;99918.16;;;12.45;81.52
50710;BME280;37033;49.994;21.992;2022-10-29T07:49:54;99931.52;;;12.48;81.46
50710;BME280;37033;49.994;21.992;2022-10-29T07:52:44;99941.20;;;12.52;81.47
50710;BME280;37033;49.994;21.992;2022-10-29T07:55:35;99946.32;;;12.57;81.53
50710;BME280;37033;49.994;21.992;2022-10-29T07:58:26;99943.36;;;12.61;81.42
50710;BME280;37033;49.994;21.992;2022-10-29T08:01:18;99944.08;;;12.67;81.40
50710;BME280;37033;49.994;21.992;2022-10-29T08:04:10;99942.42;;;12.74;81.32
50710;BME280;37033;49.994;21.992;2022-10-29T08:07:01;99944.20;;;12.81;81.54
50710;BME280;37033;49.994;21.992;2022-10-29T08:09:51;99950.94;;;12.89;81.43
50710;BME280;37033;49.994;21.992;2022-10-29T08:12:41;99951.34;;;12.98;81.36
50710;BME280;37033;49.994;21.992;2022-10-29T08:15:37;99959.13;;;13.08;81.21
50710;BME280;37033;49.994;21.992;2022-10-29T08:18:28;99952.88;;;13.19;80.91
50710;BME280;37033;49.994;21.992;2022-10-29T08:21:18;99954.83;;;13.28;80.77
50710;BME280;37033;49.994;21.992;2022-10-29T08:24:10;99951.02;;;13.38;80.12
50710;BME280;37033;49.994;21.992;2022-10-29T08:27:00;99960.09;;;13.45;79.85
50710;BME280;37033;49.994;21.992;2022-10-29T08:29:50;99960.03;;;13.54;79.93
50710;BME280;37033;49.994;21.992;2022-10-29T08:32:46;99962.96;;;13.66;79.41
50710;BME280;37033;49.994;21.992;2022-10-29T08:35:37;99963.77;;;13.78;79.16
50710;BME280;37033;49.994;21.992;2022-10-29T08:38:27;99961.91;;;13.89;78.30
50710;BME280;37033;49.994;21.992;2022-10-29T08:41:32;99960.69;;;13.94;77.47
50710;BME280;37033;49.994;21.992;2022-10-29T08:44:46;99955.67;;;13.98;77.67
50710;BME280;37033;49.994;21.992;2022-10-29T08:47:50;99956.24;;;14.00;77.23
50710;BME280;37033;49.994;21.992;2022-10-29T08:50:48;99962.71;;;14.01;77.57
50710;BME280;37033;49.994;21.992;2022-10-29T08:53:42;99966.71;;;14.05;77.58
50710;BME280;37033;49.994;21.992;2022-10-29T08:56:36;99963.56;;;14.11;78.02
50710;BME280;37033;49.994;21.992;2022-10-29T08:59:30;99966.70;;;14.19;77.87
50710;BME280;37033;49.994;21.992;2022-10-29T09:02:22;99963.00;;;14.26;77.54
50710;BME280;37033;49.994;21.992;2022-10-29T09:05:14;99963.21;;;14.32;77.36
50710;BME280;37033;49.994;21.992;2022-10-29T09:08:17;99965.48;;;14.38;77.63
50710;BME280;37033;49.994;21.992;2022-10-29T09:11:23;99976.33;;;14.43;77.27
50710;BME280;37033;49.994;21.992;2022-10-29T09:14:35;99969.91;;;14.46;77.08
50710;BME280;37033;49.994;21.992;2022-10-29T09:17:34;99967.05;;;14.50;76.88
50710;BME280;37033;49.994;21.992;2022-10-29T09:20:29;99970.84;;;14.56;76.84
50710;BME280;37033;49.994;21.992;2022-10-29T09:23:33;99968.64;;;14.59;76.54
50710;BME280;37033;49.994;21.992;2022-10-29T09:26:37;99974.20;;;14.61;75.88
50710;BME280;37033;49.994;21.992;2022-10-29T09:29:40;99971.14;;;14.63;76.22
50710;BME280;37033;49.994;21.992;2022-10-29T09:32:36;99963.68;;;14.69;75.80
50710;BME280;37033;49.994;21.992;2022-10-29T09:35:38;99956.71;;;14.73;75.23
50710;BME280;37033;49.994;21.992;2022-10-29T09:38:31;99959.81;;;14.72;75.28
50710;BME280;37033;49.994;21.992;2022-10-29T09:41:29;99957.08;;;14.71;75.01
50710;BME280;37033;49.994;21.992;2022-10-29T09:44:22;99947.79;;;14.73;75.08
50710;BME280;37033;49.994;21.992;2022-10-29T09:47:23;99948.61;;;14.76;74.48
50710;BME280;37033;49.994;21.992;2022-10-29T09:50:21;99952.21;;;14.81;74.11
50710;BME280;37033;49.994;21.992;2022-10-29T09:53:16;99943.47;;;14.87;73.99
50710;BME280;37033;49.994;21.992;2022-10-29T09:56:08;99943.90;;;14.91;73.15
50710;BME280;37033;49.994;21.992;2022-10-29T09:59:08;99941.76;;;14.95;73.17
50710;BME280;37033;49.994;21.992;2022-10-29T10:02:01;99936.09;;;14.98;72.59
50710;BME280;37033;49.994;21.992;2022-10-29T10:04:55;99935.55;;;15.03;72.89
50710;BME280;37033;49.994;21.992;2022-10-29T10:08:05;99935.11;;;15.08;72.96
50710;BME280;37033;49.994;21.992;2022-10-29T10:10:56;99934.08;;;15.14;73.08
50710;BME280;37033;49.994;21.992;2022-10-29T10:13:55;99926.48;;;15.21;72.29
50710;BME280;37033;49.994;21.992;2022-10-29T10:16:46;99924.25;;;15.24;71.87
50710;BME280;37033;49.994;21.992;2022-10-29T10:19:47;99917.11;;;15.27;71.14
50710;BME280;37033;49.994;21.992;2022-10-29T10:22:46;99909.63;;;15.30;71.27
50710;BME280;37033;49.994;21.992;2022-10-29T10:25:38;99903.45;;;15.33;70.85
50710;BME280;37033;49.994;21.992;2022-10-29T10:28:30;99896.32;;;15.36;70.60
50710;BME280;37033;49.994;21.992;2022-10-29T10:31:22;99892.56;;;15.39;70.69
50710;BME280;37033;49.994;21.992;2022-10-29T10:34:18;99890.34;;;15.43;70.97
50710;BME280;37033;49.994;21.992;2022-10-29T10:37:15;99890.90;;;15.50;70.55
50710;BME280;37033;49.994;21.992;2022-10-29T10:40:20;99894.89;;;15.55;70.50
50710;BME280;37033;49.994;21.992;2022-10-29T10:43:18;99894.84;;;15.62;70.62
50710;BME280;37033;49.994;21.992;2022-10-29T10:46:15;99885.83;;;15.67;70.07
50710;BME280;37033;49.994;21.992;2022-10-29T10:49:13;99885.77;;;15.72;70.46
50710;BME280;37033;49.994;21.992;2022-10-29T10:52:13;99879.75;;;15.79;69.44
50710;BME280;37033;49.994;21.992;2022-10-29T10:55:09;99874.55;;;15.83;68.90
50710;BME280;37033;49.994;21.992;2022-10-29T10:58:12;99873.54;;;15.87;68.99
50710;BME280;37033;49.994;21.992;2022-10-29T11:01:08;99878.15;;;15.95;69.23
50710;BME280;37033;49.994;21.992;2022-10-29T11:04:04;99876.71;;;16.04;68.77
50710;BME280;37033;49.994;21.992;2022-10-29T11:07:01;99873.07;;;16.10;68.27
50710;BME280;37033;49.994;21.992;2022-10-29T11:09:53;99877.20;;;16.15;67.98
50710;BME280;37033;49.994;21.992;2022-10-29T11:12:47;99878.66;;;16.19;68.09
50710;BME280;37033;49.994;21.992;2022-10-29T11:15:42;99878.20;;;16.24;67.86
50710;BME280;37033;49.994;21.992;2022-10-29T11:18:39;99871.25;;;16.29;68.04
50710;BME280;37033;49.994;21.992;2022-10-29T11:21:34;99872.31;;;16.34;67.47
50710;BME280;37033;49.994;21.992;2022-10-29T11:24:31;99862.94;;;16.35;67.32
50710;BME280;37033;49.994;21.992;2022-10-29T11:27:32;99868.75;;;16.37;66.86
50710;BME280;37033;49.994;21.992;2022-10-29T11:30:28;99866.04;;;16.40;66.81
50710;BME280;37033;49.994;21.992;2022-10-29T11:33:24;99861.33;;;16.43;66.69
50710;BME280;37033;49.994;21.992;2022-10-29T11:36:20;99858.86;;;16.46;66.61
50710;BME280;37033;49.994;21.992;2022-10-29T11:39:14;99857.00;;;16.48;66.37
50710;BME280;37033;49.994;21.992;2022-10-29T11:42:09;99848.67;;;16.51;66.29
50710;BME280;37033;49.994;21.992;2022-10-29T11:45:00;99849.55;;;16.53;66.28
50710;BME280;37033;49.994;21.992;2022-10-29T11:48:05;99854.55;;;16.55;66.61
50710;BME280;37033;49.994;21.992;2022-10-29T11:51:05;99851.40;;;16.60;66.22
50710;BME280;37033;49.994;21.992;2022-10-29T11:54:03;99853.75;;;16.62;66.49
50710;BME280;37033;49.994;21.992;2022-10-29T11:57:00;99851.52;;;16.66;66.41
50710;BME280;37033;49.994;21.992;2022-10-29T12:00:02;99852.89;;;16.65;66.22
50710;BME280;37033;49.994;21.992;2022-10-29T12:03:09;99843.36;;;16.58;65.69
50710;BME280;37033;49.994;21.992;2022-10-29T12:06:12;99847.30;;;16.54;65.98
50710;BME280;37033;49.994;21.992;2022-10-29T12:09:17;99847.55;;;16.58;66.45
50710;BME280;37033;49.994;21.992;2022-10-29T12:12:13;99842.77;;;16.59;66.39
50710;BME280;37033;49.994;21.992;2022-10-29T12:15:15;99847.80;;;16.55;66.50
50710;BME280;37033;49.994;21.992;2022-10-29T12:18:15;99838.17;;;16.48;65.83
50710;BME280;37033;49.994;21.992;2022-10-29T12:21:11;99845.00;;;16.38;66.13
50710;BME280;37033;49.994;21.992;2022-10-29T12:24:17;99847.07;;;16.34;66.27
50710;BME280;37033;49.994;21.992;2022-10-29T12:27:15;99849.87;;;16.34;66.64
50710;BME280;37033;49.994;21.992;2022-10-29T12:30:10;99849.21;;;16.36;66.35
50710;BME280;37033;49.994;21.992;2022-10-29T12:33:06;99845.48;;;16.34;66.35
50710;BME280;37033;49.994;21.992;2022-10-29T12:36:06;99843.32;;;16.30;66.42
50710;BME280;37033;49.994;21.992;2022-10-29T12:38:57;99836.34;;;16.25;66.92
50710;BME280;37033;49.994;21.992;2022-10-29T12:41:52;99836.83;;;16.22;67.22
50710;BME280;37033;49.994;21.992;2022-10-29T12:44:59;99836.86;;;16.21;67.41
50710;BME280;37033;49.994;21.992;2022-10-29T12:47:56;99835.63;;;16.15;67.29
50710;BME280;37033;49.994;21.992;2022-10-29T12:50:56;99837.59;;;16.09;67.41
50710;BME280;37033;49.994;21.992;2022-10-29T12:54:14;99841.35;;;16.04;67.85
50710;BME280;37033;49.994;21.992;2022-10-29T13:00:47;99832.56;;;16.01;67.74
50710;BME280;37033;49.994;21.992;2022-10-29T13:03:59;99830.11;;;15.95;67.64
50710;BME280;37033;49.994;21.992;2022-10-29T13:07:02;99824.73;;;15.85;67.87
50710;BME280;37033;49.994;21.992;2022-10-29T13:13:37;99823.52;;;15.70;68.19
50710;BME280;37033;49.994;21.992;2022-10-29T13:16:30;99823.01;;;15.66;68.46
50710;BME280;37033;49.994;21.992;2022-10-29T13:19:31;99817.95;;;15.65;68.54
50710;BME280;37033;49.994;21.992;2022-10-29T13:22:52;99818.54;;;15.62;68.38
50710;BME280;37033;49.994;21.992;2022-10-29T13:25:46;99819.62;;;15.58;68.70
50710;BME280;37033;49.994;21.992;2022-10-29T13:28:51;99820.23;;;15.60;68.88
50710;BME280;37033;49.994;21.992;2022-10-29T13:31:47;99818.15;;;15.62;68.96
50710;BME280;37033;49.994;21.992;2022-10-29T13:34:55;99821.39;;;15.62;68.94
50710;BME280;37033;49.994;21.992;2022-10-29T13:37:53;99826.38;;;15.64;69.02
50710;BME280;37033;49.994;21.992;2022-10-29T13:44:11;99829.09;;;15.58;68.71
50710;BME280;37033;49.994;21.992;2022-10-29T13:47:05;99826.55;;;15.55;69.11
50710;BME280;37033;49.994;21.992;2022-10-29T13:50:09;99826.98;;;15.53;68.94
50710;BME280;37033;49.994;21.992;2022-10-29T13:53:01;99832.98;;;15.50;69.09
50710;BME280;37033;49.994;21.992;2022-10-29T13:55:52;99829.94;;;15.46;69.27
50710;BME280;37033;49.994;21.992;2022-10-29T13:58:45;99828.45;;;15.44;69.47
50710;BME280;37033;49.994;21.992;2022-10-29T14:01:47;99824.98;;;15.42;69.26
50710;BME280;37033;49.994;21.992;2022-10-29T14:04:42;99823.61;;;15.35;69.31
50710;BME280;37033;49.994;21.992;2022-10-29T14:07:49;99826.16;;;15.25;69.07
50710;BME280;37033;49.994;21.992;2022-10-29T14:10:45;99819.49;;;15.13;69.44
50710;BME280;37033;49.994;21.992;2022-10-29T14:13:43;99823.90;;;15.04;69.69
50710;BME280;37033;49.994;21.992;2022-10-29T14:16:37;99823.38;;;14.94;69.96
50710;BME280;37033;49.994;21.992;2022-10-29T14:19:27;99823.80;;;14.87;70.16
50710;BME280;37033;49.994;21.992;2022-10-29T14:22:32;99820.90;;;14.80;70.44
50710;BME280;37033;49.994;21.992;2022-10-29T14:25:30;99820.04;;;14.76;70.79
50710;BME280;37033;49.994;21.992;2022-10-29T14:28:25;99825.98;;;14.70;70.86
50710;BME280;37033;49.994;21.992;2022-10-29T14:31:19;99826.44;;;14.62;71.04
50710;BME280;37033;49.994;21.992;2022-10-29T14:34:23;99822.11;;;14.55;71.24
50710;BME280;37033;49.994;21.992;2022-10-29T14:37:18;99823.77;;;14.49;71.35
50710;BME280;37033;49.994;21.992;2022-10-29T14:40:19;99822.64;;;14.41;71.56
50710;BME280;37033;49.994;21.992;2022-10-29T14:43:19;99820.21;;;14.35;71.78
50710;BME280;37033;49.994;21.992;2022-10-29T14:46:18;99828.77;;;14.27;72.00
50710;BME280;37033;49.994;21.992;2022-10-29T14:49:17;99824.59;;;14.20;72.16
50710;BME280;37033;49.994;21.992;2022-10-29T14:52:20;99829.96;;;14.14;72.30
50710;BME280;37033;49.994;21.992;2022-10-29T14:55:19;99829.31;;;14.10;72.54
50710;BME280;37033;49.994;21.992;2022-10-29T14:58:12;99833.03;;;14.05;72.67
50710;BME280;37033;49.994;21.992;2022-10-29T15:01:11;99830.79;;;13.97;72.81
50710;BME280;37033;49.994;21.992;2022-10-29T15:04:02;99830.20;;;13.90;72.96
50710;BME280;37033;49.994;21.992;2022-10-29T15:06:52;99829.77;;;13.83;73.12
50710;BME280;37033;49.994;21.992;2022-10-29T15:09:46;99835.16;;;13.77;73.24
50710;BME280;37033;49.994;21.992;2022-10-29T15:12:37;99837.70;;;13.72;73.34
50710;BME280;37033;49.994;21.992;2022-10-29T15:15:29;99835.59;;;13.66;73.67
50710;BME280;37033;49.994;21.992;2022-10-29T15:18:23;99833.71;;;13.59;73.91
50710;BME280;37033;49.994;21.992;2022-10-29T15:21:21;99827.86;;;13.51;74.20
50710;BME280;37033;49.994;21.992;2022-10-29T15:24:16;99830.92;;;13.45;74.27
50710;BME280;37033;49.994;21.992;2022-10-29T15:27:05;99836.05;;;13.41;74.38